Hervey City, Illinois
Current Conditions -  °F | °C
As of 1:54 AM on Friday 21 Nov 2014 (Local Time) from KDEC Reporting Station
Clear Clear  
Wind Chill: -8°   Ceiling: Unl
Heat Index: -8°   Visibility: 10mi
Dew Point: -13°   Wind: 3mph
Humidity: 68%   Direction: 30°NNE
Pressure: 30.38"   Gusts: NA
Location:  39.7516°N, 88.8516°W
Report Text: KDEC 210754Z AUTO 03003KT 10SM CLR M08/M13 A3038 RMK AO2 SLP298 T10781128 TSNO
Loading
Personal Weather Stations






























Interactive Weather Map New forecast layout! Learn more

10-Day Weather Forecast

Advertisements
Track Severe Weather on mobile